Terminal Aerodrome Forecast
Issued by NWS

Home | Current Version | Previous Version | Text Only | Print | Product List | Glossary On
Versions: 1 2 3 4 5 6 7 8 9 10 11 12 13 14 15 16 17
000
FTUS43 KILX 221100
TAFCMI
TAF
KCMI 221139Z 2212/2312 20004KT 5SM BR SKC
      TEMPO 2212/2213 2SM BR SKC
     FM221400 20012KT P6SM SCT050
     FM230300 21005KT P6SM VCTS SCT060CB
     FM230900 24006KT 5SM BR VCSH BKN030=

USA.gov is the U.S. government's official web portal to all federal, state and local government web resources and services.